PAOH

Hoonah Airport

Airport
ICAO code
PAOH
Summary
ICAO Region
NAM
ICAO Territory
Location

Hoonah,

Coordinates
58° 5' 45" N , 135° 24' 35" W
KCC
Airport BS
Bird Strike
Non Avian Wildlife Hazards to Aircraft
Airport CFIT
Altimeter Temperature Error Correction
Metar
PAOH 210456Z AUTO 09003KT 10SM CLR 05/M01 A2980 RMK AO2 SLP090 T00501006

Description

Regional airport serving the community of Hoonah located on Chichagof Island in the Alaska panhandle.

Climatology

Temperate Marine climate/Oceanic climate (Köppen climate classification Cfb). Moderately cool summer and comparatively warm winter with a temperature range of only 14°C.

Runways

Designator Length Width Surface Rops
6/24 913 23 ASPH-G No/No

Airport map

Aerial View

SKYbrary Partners:

Safety knowledge contributed by: